sensor_id;sensor_type;location;lat;lon;timestamp;P1;durP1;ratioP1;P2;durP2;ratioP2
49514;SDS011;35415;47.870;16.058;2022-12-24T00:01:22;2.50;;;2.00;;
49514;SDS011;35415;47.870;16.058;2022-12-24T00:03:49;2.30;;;2.00;;
49514;SDS011;35415;47.870;16.058;2022-12-24T00:06:20;2.78;;;1.83;;
49514;SDS011;35415;47.870;16.058;2022-12-24T00:08:52;2.25;;;1.38;;
49514;SDS011;35415;47.870;16.058;2022-12-24T00:11:20;1.40;;;1.30;;
49514;SDS011;35415;47.870;16.058;2022-12-24T00:13:48;3.00;;;1.10;;
49514;SDS011;35415;47.870;16.058;2022-12-24T00:16:17;1.08;;;0.60;;
49514;SDS011;35415;47.870;16.058;2022-12-24T00:18:45;0.30;;;0.28;;
49514;SDS011;35415;47.870;16.058;2022-12-24T00:21:12;0.30;;;0.30;;
49514;SDS011;35415;47.870;16.058;2022-12-24T00:23:40;0.40;;;0.30;;
49514;SDS011;35415;47.870;16.058;2022-12-24T00:26:09;1.83;;;0.20;;
49514;SDS011;35415;47.870;16.058;2022-12-24T00:28:37;0.20;;;0.20;;
49514;SDS011;35415;47.870;16.058;2022-12-24T00:31:08;0.30;;;0.25;;
49514;SDS011;35415;47.870;16.058;2022-12-24T00:33:39;0.10;;;0.10;;
49514;SDS011;35415;47.870;16.058;2022-12-24T00:36:09;0.20;;;0.20;;
49514;SDS011;35415;47.870;16.058;2022-12-24T00:38:37;0.10;;;0.10;;
49514;SDS011;35415;47.870;16.058;2022-12-24T00:41:08;2.17;;;0.75;;
49514;SDS011;35415;47.870;16.058;2022-12-24T00:43:49;0.30;;;0.20;;
49514;SDS011;35415;47.870;16.058;2022-12-24T00:46:18;0.45;;;0.20;;
49514;SDS011;35415;47.870;16.058;2022-12-24T00:48:47;0.10;;;0.10;;
49514;SDS011;35415;47.870;16.058;2022-12-24T00:51:15;1.13;;;0.20;;
49514;SDS011;35415;47.870;16.058;2022-12-24T00:53:44;0.10;;;0.10;;
49514;SDS011;35415;47.870;16.058;2022-12-24T00:56:12;0.50;;;0.30;;
49514;SDS011;35415;47.870;16.058;2022-12-24T00:58:40;0.20;;;0.10;;
49514;SDS011;35415;47.870;16.058;2022-12-24T01:01:08;1.33;;;0.13;;
49514;SDS011;35415;47.870;16.058;2022-12-24T01:03:37;0.52;;;0.22;;
49514;SDS011;35415;47.870;16.058;2022-12-24T01:06:09;0.30;;;0.10;;
49514;SDS011;35415;47.870;16.058;2022-12-24T01:08:36;0.38;;;0.10;;
49514;SDS011;35415;47.870;16.058;2022-12-24T01:11:05;0.10;;;0.10;;
49514;SDS011;35415;47.870;16.058;2022-12-24T01:13:34;0.10;;;0.10;;
49514;SDS011;35415;47.870;16.058;2022-12-24T01:16:03;0.57;;;0.30;;
49514;SDS011;35415;47.870;16.058;2022-12-24T01:18:42;0.50;;;0.30;;
49514;SDS011;35415;47.870;16.058;2022-12-24T01:21:12;0.00;;;0.00;;
49514;SDS011;35415;47.870;16.058;2022-12-24T01:23:41;1.35;;;0.43;;
49514;SDS011;35415;47.870;16.058;2022-12-24T01:26:11;2.10;;;0.20;;
49514;SDS011;35415;47.870;16.058;2022-12-24T01:28:39;1.02;;;0.15;;
49514;SDS011;35415;47.870;16.058;2022-12-24T01:31:10;0.20;;;0.20;;
49514;SDS011;35415;47.870;16.058;2022-12-24T01:33:38;0.10;;;0.10;;
49514;SDS011;35415;47.870;16.058;2022-12-24T01:36:06;0.57;;;0.20;;
49514;SDS011;35415;47.870;16.058;2022-12-24T01:38:48;0.10;;;0.10;;
49514;SDS011;35415;47.870;16.058;2022-12-24T01:41:20;0.73;;;0.20;;
49514;SDS011;35415;47.870;16.058;2022-12-24T01:44:15;0.60;;;0.40;;
49514;SDS011;35415;47.870;16.058;2022-12-24T01:46:45;0.47;;;0.20;;
49514;SDS011;35415;47.870;16.058;2022-12-24T01:49:15;0.08;;;0.08;;
49514;SDS011;35415;47.870;16.058;2022-12-24T01:51:45;0.10;;;0.10;;
49514;SDS011;35415;47.870;16.058;2022-12-24T01:54:21;0.43;;;0.10;;
49514;SDS011;35415;47.870;16.058;2022-12-24T01:56:59;0.10;;;0.10;;
49514;SDS011;35415;47.870;16.058;2022-12-24T01:59:30;0.28;;;0.10;;
49514;SDS011;35415;47.870;16.058;2022-12-24T02:01:59;0.00;;;0.00;;
49514;SDS011;35415;47.870;16.058;2022-12-24T02:04:33;0.10;;;0.10;;
49514;SDS011;35415;47.870;16.058;2022-12-24T02:07:07;0.13;;;0.10;;
49514;SDS011;35415;47.870;16.058;2022-12-24T02:09:36;0.43;;;0.00;;
49514;SDS011;35415;47.870;16.058;2022-12-24T02:12:05;0.00;;;0.00;;
49514;SDS011;35415;47.870;16.058;2022-12-24T02:14:33;0.00;;;0.00;;
49514;SDS011;35415;47.870;16.058;2022-12-24T02:17:05;0.00;;;0.00;;
49514;SDS011;35415;47.870;16.058;2022-12-24T02:22:53;0.10;;;0.10;;
49514;SDS011;35415;47.870;16.058;2022-12-24T02:25:44;0.10;;;0.10;;
49514;SDS011;35415;47.870;16.058;2022-12-24T02:28:35;0.10;;;0.10;;
49514;SDS011;35415;47.870;16.058;2022-12-24T02:31:22;0.20;;;0.20;;
49514;SDS011;35415;47.870;16.058;2022-12-24T02:34:01;0.10;;;0.10;;
49514;SDS011;35415;47.870;16.058;2022-12-24T02:36:34;0.10;;;0.10;;
49514;SDS011;35415;47.870;16.058;2022-12-24T02:39:07;0.57;;;0.00;;
49514;SDS011;35415;47.870;16.058;2022-12-24T02:41:39;0.28;;;0.28;;
49514;SDS011;35415;47.870;16.058;2022-12-24T02:44:27;0.43;;;0.43;;
49514;SDS011;35415;47.870;16.058;2022-12-24T02:46:57;0.10;;;0.10;;
49514;SDS011;35415;47.870;16.058;2022-12-24T02:49:29;0.00;;;0.00;;
49514;SDS011;35415;47.870;16.058;2022-12-24T02:51:57;0.15;;;0.10;;
49514;SDS011;35415;47.870;16.058;2022-12-24T02:54:25;0.43;;;0.20;;
49514;SDS011;35415;47.870;16.058;2022-12-24T02:56:56;0.20;;;0.10;;
49514;SDS011;35415;47.870;16.058;2022-12-24T03:02:29;0.50;;;0.25;;
49514;SDS011;35415;47.870;16.058;2022-12-24T03:05:18;0.30;;;0.30;;
49514;SDS011;35415;47.870;16.058;2022-12-24T03:07:55;0.93;;;0.52;;
49514;SDS011;35415;47.870;16.058;2022-12-24T03:10:30;0.28;;;0.28;;
49514;SDS011;35415;47.870;16.058;2022-12-24T03:13:06;0.52;;;0.30;;
49514;SDS011;35415;47.870;16.058;2022-12-24T03:15:38;0.30;;;0.30;;
49514;SDS011;35415;47.870;16.058;2022-12-24T03:18:12;0.38;;;0.38;;
49514;SDS011;35415;47.870;16.058;2022-12-24T03:20:43;0.77;;;0.30;;
49514;SDS011;35415;47.870;16.058;2022-12-24T03:23:13;0.30;;;0.30;;
49514;SDS011;35415;47.870;16.058;2022-12-24T03:25:44;2.08;;;0.30;;
49514;SDS011;35415;47.870;16.058;2022-12-24T03:28:15;2.15;;;0.40;;
49514;SDS011;35415;47.870;16.058;2022-12-24T03:30:46;0.68;;;0.30;;
49514;SDS011;35415;47.870;16.058;2022-12-24T03:33:16;0.77;;;0.30;;
49514;SDS011;35415;47.870;16.058;2022-12-24T03:35:44;1.10;;;0.43;;
49514;SDS011;35415;47.870;16.058;2022-12-24T03:38:12;1.25;;;0.30;;
49514;SDS011;35415;47.870;16.058;2022-12-24T03:40:39;0.30;;;0.30;;
49514;SDS011;35415;47.870;16.058;2022-12-24T03:43:08;0.22;;;0.22;;
49514;SDS011;35415;47.870;16.058;2022-12-24T03:45:37;1.02;;;0.50;;
49514;SDS011;35415;47.870;16.058;2022-12-24T03:48:08;1.17;;;0.40;;
49514;SDS011;35415;47.870;16.058;2022-12-24T03:50:37;1.02;;;0.40;;
49514;SDS011;35415;47.870;16.058;2022-12-24T03:53:04;0.65;;;0.25;;
49514;SDS011;35415;47.870;16.058;2022-12-24T03:55:31;0.95;;;0.55;;
49514;SDS011;35415;47.870;16.058;2022-12-24T03:57:59;0.50;;;0.40;;
49514;SDS011;35415;47.870;16.058;2022-12-24T04:00:26;0.50;;;0.45;;
49514;SDS011;35415;47.870;16.058;2022-12-24T04:02:55;1.75;;;0.77;;
49514;SDS011;35415;47.870;16.058;2022-12-24T04:05:22;0.25;;;0.25;;
49514;SDS011;35415;47.870;16.058;2022-12-24T04:07:52;0.73;;;0.32;;
49514;SDS011;35415;47.870;16.058;2022-12-24T04:10:19;0.80;;;0.30;;
49514;SDS011;35415;47.870;16.058;2022-12-24T04:12:46;0.55;;;0.38;;
49514;SDS011;35415;47.870;16.058;2022-12-24T04:15:15;1.98;;;0.47;;
49514;SDS011;35415;47.870;16.058;2022-12-24T04:17:43;0.63;;;0.40;;
49514;SDS011;35415;47.870;16.058;2022-12-24T04:20:11;0.47;;;0.20;;
49514;SDS011;35415;47.870;16.058;2022-12-24T04:22:38;0.43;;;0.30;;
49514;SDS011;35415;47.870;16.058;2022-12-24T04:25:09;2.22;;;0.40;;
49514;SDS011;35415;47.870;16.058;2022-12-24T04:27:37;0.98;;;0.55;;
49514;SDS011;35415;47.870;16.058;2022-12-24T04:30:05;0.65;;;0.40;;
49514;SDS011;35415;47.870;16.058;2022-12-24T04:32:34;0.20;;;0.20;;
49514;SDS011;35415;47.870;16.058;2022-12-24T04:35:01;0.20;;;0.20;;
49514;SDS011;35415;47.870;16.058;2022-12-24T04:37:31;1.65;;;0.40;;
49514;SDS011;35415;47.870;16.058;2022-12-24T04:39:59;0.30;;;0.30;;
49514;SDS011;35415;47.870;16.058;2022-12-24T04:42:30;0.20;;;0.13;;
49514;SDS011;35415;47.870;16.058;2022-12-24T04:44:58;0.20;;;0.20;;
49514;SDS011;35415;47.870;16.058;2022-12-24T04:47:25;1.00;;;0.20;;
49514;SDS011;35415;47.870;16.058;2022-12-24T04:49:53;0.95;;;0.20;;
49514;SDS011;35415;47.870;16.058;2022-12-24T04:52:20;1.45;;;0.20;;
49514;SDS011;35415;47.870;16.058;2022-12-24T04:54:49;0.52;;;0.17;;
49514;SDS011;35415;47.870;16.058;2022-12-24T04:57:16;0.20;;;0.20;;
49514;SDS011;35415;47.870;16.058;2022-12-24T04:59:45;0.40;;;0.20;;
49514;SDS011;35415;47.870;16.058;2022-12-24T05:02:13;0.20;;;0.20;;
49514;SDS011;35415;47.870;16.058;2022-12-24T05:04:40;0.75;;;0.28;;
49514;SDS011;35415;47.870;16.058;2022-12-24T05:07:07;0.50;;;0.45;;
49514;SDS011;35415;47.870;16.058;2022-12-24T05:09:38;1.33;;;0.30;;
49514;SDS011;35415;47.870;16.058;2022-12-24T05:12:05;0.30;;;0.30;;
49514;SDS011;35415;47.870;16.058;2022-12-24T05:14:33;1.88;;;0.43;;
49514;SDS011;35415;47.870;16.058;2022-12-24T05:17:03;1.13;;;0.32;;
49514;SDS011;35415;47.870;16.058;2022-12-24T05:19:33;1.08;;;0.50;;
49514;SDS011;35415;47.870;16.058;2022-12-24T05:22:01;1.48;;;0.45;;
49514;SDS011;35415;47.870;16.058;2022-12-24T05:24:45;0.50;;;0.40;;
49514;SDS011;35415;47.870;16.058;2022-12-24T05:27:30;1.20;;;0.30;;
49514;SDS011;35415;47.870;16.058;2022-12-24T05:29:58;0.40;;;0.40;;
49514;SDS011;35415;47.870;16.058;2022-12-24T05:32:27;0.70;;;0.40;;
49514;SDS011;35415;47.870;16.058;2022-12-24T05:34:54;3.50;;;0.50;;
49514;SDS011;35415;47.870;16.058;2022-12-24T05:37:22;1.70;;;0.47;;
49514;SDS011;35415;47.870;16.058;2022-12-24T05:39:49;1.83;;;0.60;;
49514;SDS011;35415;47.870;16.058;2022-12-24T05:42:16;1.75;;;0.40;;
49514;SDS011;35415;47.870;16.058;2022-12-24T05:44:43;1.13;;;0.50;;
49514;SDS011;35415;47.870;16.058;2022-12-24T05:47:11;1.50;;;0.40;;
49514;SDS011;35415;47.870;16.058;2022-12-24T05:49:40;2.20;;;0.57;;
49514;SDS011;35415;47.870;16.058;2022-12-24T05:52:07;1.40;;;0.60;;
49514;SDS011;35415;47.870;16.058;2022-12-24T05:54:35;1.42;;;0.40;;
49514;SDS011;35415;47.870;16.058;2022-12-24T05:57:02;4.15;;;0.50;;
49514;SDS011;35415;47.870;16.058;2022-12-24T05:59:29;0.38;;;0.35;;
49514;SDS011;35415;47.870;16.058;2022-12-24T06:01:57;1.65;;;0.60;;
49514;SDS011;35415;47.870;16.058;2022-12-24T06:04:24;2.47;;;0.50;;
49514;SDS011;35415;47.870;16.058;2022-12-24T06:06:54;0.75;;;0.40;;
49514;SDS011;35415;47.870;16.058;2022-12-24T06:09:21;1.38;;;0.38;;
49514;SDS011;35415;47.870;16.058;2022-12-24T06:11:48;1.00;;;0.47;;
49514;SDS011;35415;47.870;16.058;2022-12-24T06:14:16;0.45;;;0.20;;
49514;SDS011;35415;47.870;16.058;2022-12-24T06:16:43;0.10;;;0.10;;
49514;SDS011;35415;47.870;16.058;2022-12-24T06:19:11;0.20;;;0.20;;
49514;SDS011;35415;47.870;16.058;2022-12-24T06:21:38;1.10;;;0.20;;
49514;SDS011;35415;47.870;16.058;2022-12-24T06:24:10;0.17;;;0.10;;
49514;SDS011;35415;47.870;16.058;2022-12-24T06:26:38;0.10;;;0.10;;
49514;SDS011;35415;47.870;16.058;2022-12-24T06:29:05;0.95;;;0.10;;
49514;SDS011;35415;47.870;16.058;2022-12-24T06:31:33;0.20;;;0.20;;
49514;SDS011;35415;47.870;16.058;2022-12-24T06:34:00;1.90;;;0.57;;
49514;SDS011;35415;47.870;16.058;2022-12-24T06:36:27;1.65;;;0.30;;
49514;SDS011;35415;47.870;16.058;2022-12-24T06:38:58;0.80;;;0.20;;
49514;SDS011;35415;47.870;16.058;2022-12-24T06:41:26;0.40;;;0.40;;
49514;SDS011;35415;47.870;16.058;2022-12-24T06:43:54;4.63;;;0.43;;
49514;SDS011;35415;47.870;16.058;2022-12-24T06:46:23;0.88;;;0.30;;
49514;SDS011;35415;47.870;16.058;2022-12-24T06:48:51;0.65;;;0.22;;
49514;SDS011;35415;47.870;16.058;2022-12-24T06:51:19;1.27;;;0.30;;
49514;SDS011;35415;47.870;16.058;2022-12-24T06:53:47;0.17;;;0.08;;
49514;SDS011;35415;47.870;16.058;2022-12-24T06:56:16;0.15;;;0.15;;
49514;SDS011;35415;47.870;16.058;2022-12-24T06:58:46;0.30;;;0.30;;
49514;SDS011;35415;47.870;16.058;2022-12-24T07:01:15;0.10;;;0.10;;
49514;SDS011;35415;47.870;16.058;2022-12-24T07:03:43;0.43;;;0.20;;
49514;SDS011;35415;47.870;16.058;2022-12-24T07:06:14;0.55;;;0.10;;
49514;SDS011;35415;47.870;16.058;2022-12-24T07:08:44;1.13;;;0.45;;
49514;SDS011;35415;47.870;16.058;2022-12-24T07:11:12;0.52;;;0.20;;
49514;SDS011;35415;47.870;16.058;2022-12-24T07:13:40;1.02;;;0.38;;
49514;SDS011;35415;47.870;16.058;2022-12-24T07:16:08;0.40;;;0.10;;
49514;SDS011;35415;47.870;16.058;2022-12-24T07:18:36;0.15;;;0.10;;
49514;SDS011;35415;47.870;16.058;2022-12-24T07:21:06;0.52;;;0.40;;
49514;SDS011;35415;47.870;16.058;2022-12-24T07:23:35;1.08;;;0.52;;
49514;SDS011;35415;47.870;16.058;2022-12-24T07:26:02;2.25;;;0.80;;
49514;SDS011;35415;47.870;16.058;2022-12-24T07:28:31;1.60;;;0.28;;
49514;SDS011;35415;47.870;16.058;2022-12-24T07:31:02;0.40;;;0.28;;
49514;SDS011;35415;47.870;16.058;2022-12-24T07:33:33;0.40;;;0.35;;
49514;SDS011;35415;47.870;16.058;2022-12-24T07:36:02;1.10;;;0.40;;
49514;SDS011;35415;47.870;16.058;2022-12-24T07:38:31;2.97;;;1.30;;
49514;SDS011;35415;47.870;16.058;2022-12-24T07:41:01;2.20;;;0.73;;
49514;SDS011;35415;47.870;16.058;2022-12-24T07:43:29;1.33;;;0.40;;
49514;SDS011;35415;47.870;16.058;2022-12-24T07:46:00;1.92;;;0.45;;
49514;SDS011;35415;47.870;16.058;2022-12-24T07:48:28;0.50;;;0.28;;
49514;SDS011;35415;47.870;16.058;2022-12-24T07:50:57;0.28;;;0.28;;
49514;SDS011;35415;47.870;16.058;2022-12-24T07:53:25;2.92;;;0.55;;
49514;SDS011;35415;47.870;16.058;2022-12-24T07:55:56;1.10;;;0.40;;
49514;SDS011;35415;47.870;16.058;2022-12-24T07:58:24;0.77;;;0.40;;
49514;SDS011;35415;47.870;16.058;2022-12-24T08:00:55;1.55;;;0.40;;
49514;SDS011;35415;47.870;16.058;2022-12-24T08:03:23;1.23;;;0.35;;
49514;SDS011;35415;47.870;16.058;2022-12-24T08:08:39;0.88;;;0.30;;
49514;SDS011;35415;47.870;16.058;2022-12-24T08:11:06;0.60;;;0.30;;
49514;SDS011;35415;47.870;16.058;2022-12-24T08:13:33;0.55;;;0.40;;
49514;SDS011;35415;47.870;16.058;2022-12-24T08:16:03;0.35;;;0.20;;
49514;SDS011;35415;47.870;16.058;2022-12-24T08:18:32;1.07;;;0.30;;
49514;SDS011;35415;47.870;16.058;2022-12-24T08:21:00;3.13;;;1.88;;
49514;SDS011;35415;47.870;16.058;2022-12-24T08:23:29;2.03;;;0.77;;
49514;SDS011;35415;47.870;16.058;2022-12-24T08:26:05;1.08;;;0.75;;
49514;SDS011;35415;47.870;16.058;2022-12-24T08:28:34;2.17;;;0.35;;
49514;SDS011;35415;47.870;16.058;2022-12-24T08:31:02;1.00;;;0.40;;
49514;SDS011;35415;47.870;16.058;2022-12-24T08:33:30;3.28;;;0.60;;
49514;SDS011;35415;47.870;16.058;2022-12-24T08:35:58;0.40;;;0.30;;
49514;SDS011;35415;47.870;16.058;2022-12-24T08:38:29;1.30;;;0.40;;
49514;SDS011;35415;47.870;16.058;2022-12-24T08:40:56;1.75;;;0.40;;
49514;SDS011;35415;47.870;16.058;2022-12-24T08:43:24;2.92;;;0.75;;
49514;SDS011;35415;47.870;16.058;2022-12-24T08:45:51;1.48;;;0.45;;
49514;SDS011;35415;47.870;16.058;2022-12-24T08:48:19;0.57;;;0.30;;
49514;SDS011;35415;47.870;16.058;2022-12-24T08:50:59;1.45;;;0.70;;
49514;SDS011;35415;47.870;16.058;2022-12-24T08:53:33;0.77;;;0.50;;
49514;SDS011;35415;47.870;16.058;2022-12-24T08:56:01;2.78;;;0.63;;
49514;SDS011;35415;47.870;16.058;2022-12-24T08:58:35;2.20;;;0.57;;
49514;SDS011;35415;47.870;16.058;2022-12-24T09:01:08;1.98;;;0.68;;
49514;SDS011;35415;47.870;16.058;2022-12-24T09:03:36;2.00;;;0.60;;
49514;SDS011;35415;47.870;16.058;2022-12-24T09:06:08;0.93;;;0.57;;
49514;SDS011;35415;47.870;16.058;2022-12-24T09:08:37;3.13;;;1.45;;
49514;SDS011;35415;47.870;16.058;2022-12-24T09:11:08;2.28;;;0.60;;
49514;SDS011;35415;47.870;16.058;2022-12-24T09:13:37;2.28;;;0.55;;
49514;SDS011;35415;47.870;16.058;2022-12-24T09:16:05;2.75;;;0.65;;
49514;SDS011;35415;47.870;16.058;2022-12-24T09:18:32;5.63;;;1.98;;
49514;SDS011;35415;47.870;16.058;2022-12-24T09:21:03;0.50;;;0.35;;
49514;SDS011;35415;47.870;16.058;2022-12-24T09:23:33;3.85;;;0.65;;
49514;SDS011;35415;47.870;16.058;2022-12-24T09:26:05;2.72;;;0.43;;
49514;SDS011;35415;47.870;16.058;2022-12-24T09:28:36;2.75;;;0.80;;
49514;SDS011;35415;47.870;16.058;2022-12-24T09:31:04;1.52;;;0.65;;
49514;SDS011;35415;47.870;16.058;2022-12-24T09:33:34;1.95;;;0.50;;
49514;SDS011;35415;47.870;16.058;2022-12-24T09:36:04;1.92;;;0.63;;
49514;SDS011;35415;47.870;16.058;2022-12-24T09:38:35;1.85;;;0.45;;
49514;SDS011;35415;47.870;16.058;2022-12-24T09:41:12;2.30;;;0.77;;
49514;SDS011;35415;47.870;16.058;2022-12-24T09:43:43;2.85;;;0.73;;
49514;SDS011;35415;47.870;16.058;2022-12-24T09:46:19;2.65;;;1.00;;
49514;SDS011;35415;47.870;16.058;2022-12-24T09:48:52;5.13;;;0.70;;
49514;SDS011;35415;47.870;16.058;2022-12-24T09:51:23;1.80;;;0.57;;
49514;SDS011;35415;47.870;16.058;2022-12-24T09:53:58;3.28;;;1.65;;
49514;SDS011;35415;47.870;16.058;2022-12-24T09:56:32;1.60;;;0.70;;
49514;SDS011;35415;47.870;16.058;2022-12-24T09:59:09;4.03;;;0.80;;
49514;SDS011;35415;47.870;16.058;2022-12-24T10:01:40;4.38;;;0.80;;
49514;SDS011;35415;47.870;16.058;2022-12-24T10:04:09;4.63;;;0.75;;
49514;SDS011;35415;47.870;16.058;2022-12-24T10:06:44;1.70;;;0.68;;
49514;SDS011;35415;47.870;16.058;2022-12-24T10:09:19;2.67;;;0.70;;
49514;SDS011;35415;47.870;16.058;2022-12-24T10:11:59;2.95;;;0.75;;
49514;SDS011;35415;47.870;16.058;2022-12-24T10:14:36;3.33;;;0.80;;
49514;SDS011;35415;47.870;16.058;2022-12-24T10:17:27;5.70;;;0.70;;
49514;SDS011;35415;47.870;16.058;2022-12-24T10:20:19;3.88;;;0.85;;
49514;SDS011;35415;47.870;16.058;2022-12-24T10:23:18;5.78;;;0.90;;
49514;SDS011;35415;47.870;16.058;2022-12-24T10:25:52;3.72;;;0.88;;
49514;SDS011;35415;47.870;16.058;2022-12-24T10:28:32;6.03;;;0.90;;
49514;SDS011;35415;47.870;16.058;2022-12-24T10:31:07;2.92;;;0.77;;
49514;SDS011;35415;47.870;16.058;2022-12-24T10:33:36;1.65;;;0.70;;
49514;SDS011;35415;47.870;16.058;2022-12-24T10:36:07;1.48;;;0.65;;
49514;SDS011;35415;47.870;16.058;2022-12-24T10:38:42;2.55;;;0.70;;
49514;SDS011;35415;47.870;16.058;2022-12-24T10:41:10;2.50;;;0.77;;
49514;SDS011;35415;47.870;16.058;2022-12-24T10:43:42;3.08;;;0.75;;
49514;SDS011;35415;47.870;16.058;2022-12-24T10:46:17;1.38;;;0.90;;
49514;SDS011;35415;47.870;16.058;2022-12-24T10:48:58;1.63;;;1.02;;
49514;SDS011;35415;47.870;16.058;2022-12-24T10:51:29;7.63;;;1.35;;
49514;SDS011;35415;47.870;16.058;2022-12-24T10:54:05;3.10;;;1.00;;
49514;SDS011;35415;47.870;16.058;2022-12-24T10:56:37;1.23;;;0.50;;
49514;SDS011;35415;47.870;16.058;2022-12-24T10:59:09;2.80;;;1.08;;
49514;SDS011;35415;47.870;16.058;2022-12-24T11:01:49;2.50;;;1.10;;
49514;SDS011;35415;47.870;16.058;2022-12-24T11:04:20;3.95;;;1.20;;
49514;SDS011;35415;47.870;16.058;2022-12-24T11:06:53;6.20;;;1.52;;
49514;SDS011;35415;47.870;16.058;2022-12-24T11:09:22;2.92;;;1.17;;
49514;SDS011;35415;47.870;16.058;2022-12-24T11:11:51;4.53;;;0.80;;
49514;SDS011;35415;47.870;16.058;2022-12-24T11:14:22;3.67;;;0.95;;
49514;SDS011;35415;47.870;16.058;2022-12-24T11:16:50;2.70;;;0.70;;
49514;SDS011;35415;47.870;16.058;2022-12-24T11:19:22;7.10;;;0.80;;
49514;SDS011;35415;47.870;16.058;2022-12-24T11:22:00;2.72;;;0.68;;
49514;SDS011;35415;47.870;16.058;2022-12-24T11:24:29;4.85;;;0.85;;
49514;SDS011;35415;47.870;16.058;2022-12-24T11:30:20;6.32;;;0.77;;
49514;SDS011;35415;47.870;16.058;2022-12-24T11:35:47;2.70;;;1.10;;
49514;SDS011;35415;47.870;16.058;2022-12-24T11:38:20;3.85;;;1.48;;
49514;SDS011;35415;47.870;16.058;2022-12-24T11:40:57;6.32;;;2.70;;
49514;SDS011;35415;47.870;16.058;2022-12-24T11:43:26;7.70;;;3.28;;
49514;SDS011;35415;47.870;16.058;2022-12-24T11:46:15;3.97;;;2.30;;
49514;SDS011;35415;47.870;16.058;2022-12-24T11:48:47;6.70;;;3.28;;
49514;SDS011;35415;47.870;16.058;2022-12-24T11:51:21;5.97;;;1.98;;
49514;SDS011;35415;47.870;16.058;2022-12-24T11:53:55;3.15;;;1.27;;
49514;SDS011;35415;47.870;16.058;2022-12-24T11:56:29;3.03;;;1.08;;
49514;SDS011;35415;47.870;16.058;2022-12-24T11:59:02;3.30;;;0.90;;
49514;SDS011;35415;47.870;16.058;2022-12-24T12:01:41;5.55;;;1.33;;
49514;SDS011;35415;47.870;16.058;2022-12-24T12:04:17;1.75;;;0.70;;
49514;SDS011;35415;47.870;16.058;2022-12-24T12:06:51;2.30;;;0.73;;
49514;SDS011;35415;47.870;16.058;2022-12-24T12:09:23;5.78;;;2.22;;
49514;SDS011;35415;47.870;16.058;2022-12-24T12:11:55;3.88;;;0.90;;
49514;SDS011;35415;47.870;16.058;2022-12-24T12:14:29;2.45;;;0.80;;
49514;SDS011;35415;47.870;16.058;2022-12-24T12:17:17;3.47;;;0.65;;
49514;SDS011;35415;47.870;16.058;2022-12-24T12:19:54;5.72;;;1.80;;
49514;SDS011;35415;47.870;16.058;2022-12-24T12:22:33;2.50;;;0.82;;
49514;SDS011;35415;47.870;16.058;2022-12-24T12:25:20;5.43;;;1.85;;
49514;SDS011;35415;47.870;16.058;2022-12-24T12:27:50;7.43;;;2.67;;
49514;SDS011;35415;47.870;16.058;2022-12-24T12:30:34;3.22;;;1.10;;
49514;SDS011;35415;47.870;16.058;2022-12-24T12:33:21;2.22;;;1.02;;
49514;SDS011;35415;47.870;16.058;2022-12-24T12:36:02;3.00;;;0.85;;
49514;SDS011;35415;47.870;16.058;2022-12-24T12:38:32;2.47;;;1.17;;
49514;SDS011;35415;47.870;16.058;2022-12-24T12:41:00;2.35;;;0.90;;
49514;SDS011;35415;47.870;16.058;2022-12-24T12:43:44;1.60;;;1.00;;
49514;SDS011;35415;47.870;16.058;2022-12-24T12:46:37;4.15;;;1.20;;
49514;SDS011;35415;47.870;16.058;2022-12-24T12:49:20;1.80;;;0.98;;
49514;SDS011;35415;47.870;16.058;2022-12-24T12:51:56;4.13;;;0.80;;
49514;SDS011;35415;47.870;16.058;2022-12-24T12:54:33;2.22;;;0.80;;
49514;SDS011;35415;47.870;16.058;2022-12-24T12:57:10;5.35;;;1.00;;
49514;SDS011;35415;47.870;16.058;2022-12-24T12:59:48;1.85;;;0.82;;
49514;SDS011;35415;47.870;16.058;2022-12-24T13:02:25;1.15;;;0.70;;
49514;SDS011;35415;47.870;16.058;2022-12-24T13:05:21;2.38;;;0.80;;
49514;SDS011;35415;47.870;16.058;2022-12-24T13:08:06;1.77;;;0.90;;
49514;SDS011;35415;47.870;16.058;2022-12-24T13:10:55;1.25;;;0.60;;
49514;SDS011;35415;47.870;16.058;2022-12-24T13:19:47;0.77;;;0.70;;
49514;SDS011;35415;47.870;16.058;2022-12-24T13:22:37;0.88;;;0.45;;
49514;SDS011;35415;47.870;16.058;2022-12-24T13:25:16;0.85;;;0.45;;
49514;SDS011;35415;47.870;16.058;2022-12-24T13:27:47;0.83;;;0.47;;
49514;SDS011;35415;47.870;16.058;2022-12-24T13:33:00;1.00;;;0.55;;
49514;SDS011;35415;47.870;16.058;2022-12-24T13:35:30;1.55;;;0.73;;
49514;SDS011;35415;47.870;16.058;2022-12-24T13:44:24;1.20;;;0.70;;
49514;SDS011;35415;47.870;16.058;2022-12-24T13:47:01;1.73;;;0.98;;
49514;SDS011;35415;47.870;16.058;2022-12-24T13:49:42;2.17;;;0.68;;
49514;SDS011;35415;47.870;16.058;2022-12-24T13:52:16;2.72;;;0.93;;
49514;SDS011;35415;47.870;16.058;2022-12-24T13:54:48;7.18;;;0.88;;
49514;SDS011;35415;47.870;16.058;2022-12-24T13:57:31;1.70;;;0.90;;
49514;SDS011;35415;47.870;16.058;2022-12-24T14:00:17;2.78;;;0.50;;
49514;SDS011;35415;47.870;16.058;2022-12-24T14:03:15;3.28;;;0.60;;
49514;SDS011;35415;47.870;16.058;2022-12-24T14:05:49;1.43;;;0.73;;
49514;SDS011;35415;47.870;16.058;2022-12-24T14:08:31;1.60;;;0.65;;
49514;SDS011;35415;47.870;16.058;2022-12-24T14:11:04;3.53;;;0.80;;
49514;SDS011;35415;47.870;16.058;2022-12-24T14:19:29;2.85;;;0.98;;
49514;SDS011;35415;47.870;16.058;2022-12-24T14:22:18;1.20;;;0.40;;
49514;SDS011;35415;47.870;16.058;2022-12-24T14:24:54;4.05;;;1.13;;
49514;SDS011;35415;47.870;16.058;2022-12-24T14:27:24;4.63;;;0.93;;
49514;SDS011;35415;47.870;16.058;2022-12-24T14:30:01;1.90;;;0.70;;
49514;SDS011;35415;47.870;16.058;2022-12-24T14:32:44;3.40;;;0.80;;
49514;SDS011;35415;47.870;16.058;2022-12-24T14:35:13;5.63;;;1.10;;
49514;SDS011;35415;47.870;16.058;2022-12-24T14:37:45;3.00;;;0.65;;
49514;SDS011;35415;47.870;16.058;2022-12-24T14:40:15;2.38;;;1.08;;
49514;SDS011;35415;47.870;16.058;2022-12-24T14:42:48;3.03;;;1.05;;
49514;SDS011;35415;47.870;16.058;2022-12-24T14:45:26;1.65;;;0.65;;
49514;SDS011;35415;47.870;16.058;2022-12-24T14:48:00;3.05;;;0.70;;
49514;SDS011;35415;47.870;16.058;2022-12-24T14:50:44;2.72;;;0.63;;
49514;SDS011;35415;47.870;16.058;2022-12-24T14:53:24;4.38;;;0.98;;
49514;SDS011;35415;47.870;16.058;2022-12-24T14:55:57;5.97;;;1.50;;
49514;SDS011;35415;47.870;16.058;2022-12-24T14:58:28;6.50;;;1.83;;
49514;SDS011;35415;47.870;16.058;2022-12-24T15:00:57;3.92;;;1.33;;
49514;SDS011;35415;47.870;16.058;2022-12-24T15:03:28;4.63;;;1.23;;
49514;SDS011;35415;47.870;16.058;2022-12-24T15:05:57;5.88;;;1.25;;
49514;SDS011;35415;47.870;16.058;2022-12-24T15:08:36;1.35;;;0.75;;
49514;SDS011;35415;47.870;16.058;2022-12-24T15:11:07;4.88;;;0.90;;
49514;SDS011;35415;47.870;16.058;2022-12-24T15:13:36;3.55;;;1.00;;
49514;SDS011;35415;47.870;16.058;2022-12-24T15:16:06;4.53;;;0.95;;
49514;SDS011;35415;47.870;16.058;2022-12-24T15:18:37;4.90;;;1.20;;
49514;SDS011;35415;47.870;16.058;2022-12-24T15:21:12;2.55;;;1.30;;
49514;SDS011;35415;47.870;16.058;2022-12-24T15:23:44;5.35;;;1.67;;
49514;SDS011;35415;47.870;16.058;2022-12-24T15:26:15;2.38;;;0.98;;
49514;SDS011;35415;47.870;16.058;2022-12-24T15:29:27;5.22;;;1.65;;
49514;SDS011;35415;47.870;16.058;2022-12-24T15:31:56;3.17;;;0.95;;
49514;SDS011;35415;47.870;16.058;2022-12-24T15:34:28;5.47;;;1.50;;
49514;SDS011;35415;47.870;16.058;2022-12-24T15:37:01;5.22;;;1.02;;
49514;SDS011;35415;47.870;16.058;2022-12-24T15:39:30;4.45;;;1.85;;